createdAt,value
2022-12-18T00:01:34.233Z,28.77
2022-12-18T00:04:03.137Z,28.48
2022-12-18T00:06:30.724Z,29.83
2022-12-18T00:08:59.321Z,32.03
2022-12-18T00:11:29.385Z,28.67
2022-12-18T00:14:00.274Z,28.73
2022-12-18T00:16:29.006Z,28.83
2022-12-18T00:18:59.212Z,30.35
2022-12-18T00:21:26.678Z,29.48
2022-12-18T00:23:53.889Z,28.35
2022-12-18T00:26:29.886Z,29.48
2022-12-18T00:29:00.992Z,27.33
2022-12-18T00:31:28.269Z,27.33
2022-12-18T00:33:56.918Z,28.45
2022-12-18T00:36:26.458Z,25.08
2022-12-18T00:38:55.356Z,28.50
2022-12-18T00:41:41.255Z,27.65
2022-12-18T00:44:10.522Z,27.52
2022-12-18T00:46:37.241Z,26.92
2022-12-18T00:49:04.943Z,29.02
2022-12-18T00:51:31.767Z,26.08
2022-12-18T00:53:58.509Z,26.27
2022-12-18T00:56:25.677Z,26.50
2022-12-18T00:58:52.892Z,26.52
2022-12-18T01:01:20.093Z,30.08
2022-12-18T01:03:47.673Z,28.25
2022-12-18T01:06:15.739Z,27.35
2022-12-18T01:08:42.737Z,29.73
2022-12-18T01:11:12.832Z,28.50
2022-12-18T01:13:40.435Z,28.30
2022-12-18T01:16:08.250Z,29.30
2022-12-18T01:18:35.438Z,27.52
2022-12-18T01:21:07.074Z,29.13
2022-12-18T01:23:33.704Z,29.40
2022-12-18T01:26:06.162Z,27.55
2022-12-18T01:28:33.226Z,28.08
2022-12-18T01:31:16.082Z,26.90
2022-12-18T01:33:43.601Z,27.98
2022-12-18T01:36:22.753Z,27.25
2022-12-18T01:38:50.629Z,25.73
2022-12-18T01:41:19.201Z,29.05
2022-12-18T01:43:55.408Z,27.00
2022-12-18T01:46:26.978Z,27.65
2022-12-18T01:48:59.171Z,26.48
2022-12-18T01:51:28.226Z,26.98
2022-12-18T01:53:55.039Z,26.08
2022-12-18T01:56:22.540Z,26.92
2022-12-18T01:59:01.137Z,26.33
2022-12-18T02:01:30.209Z,26.00
2022-12-18T02:03:57.306Z,27.63
2022-12-18T02:06:40.460Z,30.08
2022-12-18T02:09:14.873Z,27.88
2022-12-18T02:11:54.095Z,28.48
2022-12-18T02:14:46.366Z,27.00
2022-12-18T02:17:37.001Z,29.48
2022-12-18T02:20:37.967Z,26.30
2022-12-18T02:23:33.641Z,28.13
2022-12-18T02:26:10.980Z,26.58
2022-12-18T02:28:43.778Z,28.25
2022-12-18T02:31:15.384Z,28.00
2022-12-18T02:33:45.346Z,28.15
2022-12-18T02:36:15.500Z,27.55
2022-12-18T02:38:44.255Z,30.42
2022-12-18T02:41:11.520Z,29.52
2022-12-18T02:43:38.612Z,26.88
2022-12-18T02:46:50.547Z,27.73
2022-12-18T02:49:38.292Z,28.75
2022-12-18T02:52:30.904Z,27.38
2022-12-18T02:55:18.832Z,29.58
2022-12-18T02:57:57.359Z,28.13
2022-12-18T03:00:48.633Z,29.58
2022-12-18T03:03:21.036Z,28.60
2022-12-18T03:06:06.288Z,28.67
2022-12-18T03:08:39.683Z,29.58
2022-12-18T03:11:10.684Z,30.40
2022-12-18T03:13:57.398Z,27.95
2022-12-18T03:16:28.165Z,30.15
2022-12-18T03:19:02.155Z,26.40
2022-12-18T03:21:48.489Z,28.95
2022-12-18T03:24:18.148Z,28.08
2022-12-18T03:26:48.139Z,28.00
2022-12-18T03:29:28.496Z,28.85
2022-12-18T03:34:37.152Z,29.20
2022-12-18T03:37:04.823Z,29.42
2022-12-18T03:39:31.942Z,27.13
2022-12-18T03:42:06.823Z,27.13
2022-12-18T03:44:45.311Z,28.00
2022-12-18T03:47:48.097Z,27.02
2022-12-18T03:50:36.973Z,26.38
2022-12-18T03:53:06.341Z,25.70
2022-12-18T03:55:35.608Z,27.23
2022-12-18T03:58:04.807Z,27.58
2022-12-18T04:00:32.734Z,27.33
2022-12-18T04:03:02.365Z,26.17
2022-12-18T04:05:31.159Z,28.77
2022-12-18T04:07:58.791Z,25.63
2022-12-18T04:10:25.448Z,25.67
2022-12-18T04:12:56.311Z,26.33
2022-12-18T04:15:23.036Z,26.58
2022-12-18T04:17:50.985Z,27.08
2022-12-18T04:20:18.549Z,26.95
2022-12-18T04:22:45.236Z,26.88
2022-12-18T04:25:13.641Z,24.67
2022-12-18T04:27:40.468Z,28.67
2022-12-18T04:30:08.159Z,26.98
2022-12-18T04:32:35.766Z,28.50
2022-12-18T04:35:03.024Z,25.33
2022-12-18T04:37:29.751Z,26.27
2022-12-18T04:39:56.489Z,26.20
2022-12-18T04:42:23.193Z,27.13
2022-12-18T04:44:49.986Z,26.10
2022-12-18T04:47:16.696Z,22.48
2022-12-18T04:49:43.397Z,25.75
2022-12-18T04:52:10.158Z,26.25
2022-12-18T04:54:36.808Z,24.65
2022-12-18T04:57:03.417Z,26.77
2022-12-18T04:59:30.296Z,26.33
2022-12-18T05:01:57.159Z,26.92
2022-12-18T05:04:23.897Z,26.00
2022-12-18T05:06:50.607Z,25.10
2022-12-18T05:09:17.378Z,24.60
2022-12-18T05:11:46.320Z,22.42
2022-12-18T05:14:13.284Z,23.17
2022-12-18T05:16:39.937Z,24.52
2022-12-18T05:19:06.904Z,23.45
2022-12-18T05:21:33.892Z,20.90
2022-12-18T05:24:00.747Z,22.90
2022-12-18T05:26:27.398Z,22.05
2022-12-18T05:28:54.114Z,23.90
2022-12-18T05:31:20.920Z,21.90
2022-12-18T05:33:47.646Z,23.13
2022-12-18T05:36:14.436Z,21.27
2022-12-18T05:38:41.892Z,22.25
2022-12-18T05:41:09.614Z,21.88
2022-12-18T05:43:38.826Z,22.13
2022-12-18T05:46:17.133Z,20.97
2022-12-18T05:48:44.452Z,19.90
2022-12-18T05:51:14.047Z,20.05
2022-12-18T05:53:40.930Z,18.97
2022-12-18T05:56:12.639Z,19.02
2022-12-18T05:58:39.678Z,21.00
2022-12-18T06:01:16.818Z,19.77
2022-12-18T06:03:44.254Z,19.60
2022-12-18T06:06:29.931Z,17.85
2022-12-18T06:08:57.599Z,19.73
2022-12-18T06:11:27.185Z,18.95
2022-12-18T06:13:58.549Z,19.20
2022-12-18T06:16:30.292Z,18.13
2022-12-18T06:18:59.842Z,19.65
2022-12-18T06:21:27.042Z,19.33
2022-12-18T06:23:53.678Z,19.17
2022-12-18T06:26:26.165Z,19.77
2022-12-18T06:28:54.810Z,19.67
2022-12-18T06:31:21.739Z,18.95
2022-12-18T06:33:48.402Z,18.75
2022-12-18T06:36:15.392Z,18.75
2022-12-18T06:38:44.119Z,19.98
2022-12-18T06:41:16.291Z,18.10
2022-12-18T06:43:43.655Z,19.10
2022-12-18T06:46:10.993Z,17.33
2022-12-18T06:48:37.792Z,18.95
2022-12-18T06:51:05.022Z,17.15
2022-12-18T06:53:33.836Z,17.65
2022-12-18T06:56:09.874Z,15.63
2022-12-18T06:58:38.455Z,17.02
2022-12-18T07:01:07.287Z,18.52
2022-12-18T07:03:34.208Z,17.05
2022-12-18T07:06:01.095Z,18.08
2022-12-18T07:08:27.986Z,17.33
2022-12-18T07:10:56.394Z,17.65
2022-12-18T07:13:24.110Z,18.00
2022-12-18T07:15:51.084Z,17.17
2022-12-18T07:18:17.786Z,17.65
2022-12-18T07:20:45.384Z,18.50
2022-12-18T07:23:12.851Z,19.23
2022-12-18T07:25:40.655Z,16.20
2022-12-18T07:28:09.600Z,15.90
2022-12-18T07:30:39.398Z,16.83
2022-12-18T07:33:06.068Z,17.92
2022-12-18T07:35:34.333Z,17.50
2022-12-18T07:38:01.173Z,17.55
2022-12-18T07:40:27.917Z,17.58
2022-12-18T07:42:54.863Z,17.35
2022-12-18T07:45:21.493Z,15.88
2022-12-18T07:47:48.125Z,16.77
2022-12-18T07:50:15.008Z,16.80
2022-12-18T07:52:41.812Z,15.95
2022-12-18T07:55:08.986Z,16.23
2022-12-18T07:57:50.452Z,17.15
2022-12-18T08:00:18.891Z,16.40
2022-12-18T08:02:45.824Z,16.38
2022-12-18T08:05:12.785Z,16.08
2022-12-18T08:07:39.416Z,17.35
2022-12-18T08:10:07.565Z,22.02
2022-12-18T08:12:34.397Z,18.02
2022-12-18T08:15:02.353Z,17.35
2022-12-18T08:17:29.663Z,17.02
2022-12-18T08:19:56.335Z,15.50
2022-12-18T08:22:23.185Z,17.27
2022-12-18T08:24:49.983Z,15.35
2022-12-18T08:27:32.229Z,14.52
2022-12-18T08:29:59.534Z,17.20
2022-12-18T08:32:28.442Z,15.23
2022-12-18T08:34:55.333Z,16.73
2022-12-18T08:37:22.267Z,16.20
2022-12-18T08:39:48.899Z,15.20
2022-12-18T08:42:34.078Z,15.02
2022-12-18T08:45:00.811Z,14.15
2022-12-18T08:47:27.441Z,15.13
2022-12-18T08:49:54.287Z,15.52
2022-12-18T08:52:21.180Z,13.73
2022-12-18T08:54:47.849Z,15.07
2022-12-18T08:57:14.851Z,14.60
2022-12-18T08:59:41.537Z,15.43
2022-12-18T09:02:11.566Z,14.88
2022-12-18T09:04:38.543Z,14.73
2022-12-18T09:07:05.408Z,12.77
2022-12-18T09:09:32.190Z,13.50
2022-12-18T09:11:58.903Z,12.85
2022-12-18T09:14:25.703Z,12.88
2022-12-18T09:16:52.402Z,13.07
2022-12-18T09:19:19.257Z,12.35
2022-12-18T09:21:48.239Z,13.75
2022-12-18T09:24:16.235Z,13.75
2022-12-18T09:26:43.754Z,11.88
2022-12-18T09:29:15.613Z,12.52
2022-12-18T09:31:43.087Z,11.88
2022-12-18T09:34:09.918Z,11.02
2022-12-18T09:36:36.710Z,11.55
2022-12-18T09:39:08.222Z,11.10
2022-12-18T09:41:55.726Z,11.82
2022-12-18T09:44:44.438Z,11.30
2022-12-18T09:47:24.595Z,10.43
2022-12-18T09:49:56.154Z,11.65
2022-12-18T09:52:29.687Z,10.10
2022-12-18T09:55:03.156Z,10.23
2022-12-18T09:57:34.398Z,10.18
2022-12-18T10:00:10.900Z,9.48
2022-12-18T10:02:37.858Z,9.45
2022-12-18T10:05:06.895Z,9.10
2022-12-18T10:07:44.210Z,8.90
2022-12-18T10:10:25.719Z,8.85
2022-12-18T10:13:32.935Z,8.35
2022-12-18T10:16:11.084Z,8.95
2022-12-18T10:18:51.887Z,8.25
2022-12-18T10:21:57.231Z,7.88
2022-12-18T10:24:38.932Z,8.13
2022-12-18T10:27:26.786Z,9.73
2022-12-18T10:29:55.098Z,9.32
2022-12-18T10:32:27.435Z,9.52
2022-12-18T10:35:00.652Z,8.48
2022-12-18T10:37:30.477Z,8.70
2022-12-18T10:40:22.373Z,10.00
2022-12-18T10:43:12.455Z,9.32
2022-12-18T10:45:39.259Z,9.40
2022-12-18T10:48:18.297Z,9.77
2022-12-18T10:53:42.902Z,9.30
2022-12-18T10:56:10.232Z,9.50
2022-12-18T10:58:39.998Z,9.52
2022-12-18T11:04:02.411Z,8.20
2022-12-18T11:06:30.338Z,7.97
2022-12-18T11:09:36.402Z,7.63
2022-12-18T11:12:25.227Z,8.13
2022-12-18T11:14:54.443Z,8.18
2022-12-18T11:17:32.329Z,7.70
2022-12-18T11:20:01.714Z,8.32
2022-12-18T11:22:34.626Z,8.05
2022-12-18T11:25:33.101Z,8.38
2022-12-18T11:27:59.021Z,7.75
2022-12-18T11:30:33.069Z,8.00
2022-12-18T11:33:23.139Z,8.60
2022-12-18T11:35:54.870Z,8.45
2022-12-18T11:38:30.049Z,7.60
2022-12-18T11:41:47.783Z,7.15
2022-12-18T11:44:47.255Z,7.88
2022-12-18T11:47:29.390Z,7.75
2022-12-18T11:50:00.581Z,7.20
2022-12-18T11:52:39.345Z,6.80
2022-12-18T11:55:28.665Z,6.90
2022-12-18T11:58:13.110Z,7.22
2022-12-18T12:00:54.103Z,6.93
2022-12-18T12:03:52.726Z,6.80
2022-12-18T12:06:47.654Z,7.00
2022-12-18T12:09:49.547Z,6.82
2022-12-18T12:12:23.165Z,7.13
2022-12-18T12:14:53.786Z,7.63
2022-12-18T12:17:23.198Z,7.40
2022-12-18T12:20:03.659Z,6.65
2022-12-18T12:25:34.206Z,7.43
2022-12-18T12:28:24.092Z,5.90
2022-12-18T12:31:29.347Z,6.30
2022-12-18T12:34:13.326Z,5.88
2022-12-18T12:37:02.777Z,5.68
2022-12-18T12:39:37.617Z,5.68
2022-12-18T12:42:35.158Z,5.40
2022-12-18T12:45:05.775Z,5.82
2022-12-18T12:47:38.154Z,6.97
2022-12-18T12:50:13.236Z,6.53
2022-12-18T12:52:56.225Z,6.60
2022-12-18T12:55:29.061Z,5.55
2022-12-18T12:58:18.055Z,6.38
2022-12-18T13:01:05.818Z,6.18
2022-12-18T13:03:41.446Z,6.00
2022-12-18T13:06:29.070Z,5.18
2022-12-18T13:09:01.699Z,7.03
2022-12-18T13:11:52.562Z,6.10
2022-12-18T13:14:27.384Z,5.10
2022-12-18T13:17:20.029Z,5.60
2022-12-18T13:19:52.445Z,6.05
2022-12-18T13:22:43.315Z,6.50
2022-12-18T13:28:11.193Z,4.78
2022-12-18T13:30:50.217Z,4.93
2022-12-18T13:33:18.345Z,5.50
2022-12-18T13:35:48.019Z,5.68
2022-12-18T13:38:34.095Z,5.93
2022-12-18T13:41:20.190Z,5.97
2022-12-18T13:43:48.131Z,5.28
2022-12-18T13:46:29.082Z,5.90
2022-12-18T13:48:58.780Z,5.80
2022-12-18T13:51:27.372Z,7.10
2022-12-18T13:53:58.368Z,6.03
2022-12-18T13:56:31.409Z,6.25
2022-12-18T13:59:06.760Z,5.63
2022-12-18T14:01:33.918Z,5.60
2022-12-18T14:04:12.288Z,6.22
2022-12-18T14:06:39.675Z,5.65
2022-12-18T14:09:06.658Z,6.10
2022-12-18T14:11:36.294Z,5.47
2022-12-18T14:14:08.543Z,5.78
2022-12-18T14:16:35.643Z,6.13
2022-12-18T14:19:11.800Z,7.47
2022-12-18T14:21:48.393Z,10.65
2022-12-18T14:24:20.597Z,8.15
2022-12-18T14:26:50.592Z,6.38
2022-12-18T14:29:23.395Z,6.47
2022-12-18T14:32:25.752Z,6.20
2022-12-18T14:34:56.846Z,6.60
2022-12-18T14:37:27.136Z,6.22
2022-12-18T14:40:10.452Z,6.20
2022-12-18T14:42:38.701Z,6.53
2022-12-18T14:45:44.456Z,6.90
2022-12-18T14:48:23.220Z,5.70
2022-12-18T14:51:06.229Z,6.00
2022-12-18T14:53:40.558Z,6.22
2022-12-18T14:56:15.623Z,6.93
2022-12-18T14:58:47.453Z,7.53
2022-12-18T15:01:26.712Z,6.80
2022-12-18T15:03:56.004Z,7.25
2022-12-18T15:06:29.939Z,7.20
2022-12-18T15:08:57.975Z,7.70
2022-12-18T15:11:46.484Z,7.07
2022-12-18T15:14:31.143Z,7.38
2022-12-18T15:17:00.125Z,6.95
2022-12-18T15:19:46.744Z,7.28
2022-12-18T15:22:35.486Z,7.68
2022-12-18T15:25:03.527Z,7.70
2022-12-18T15:27:36.860Z,8.05
2022-12-18T15:30:19.363Z,7.68
2022-12-18T15:32:46.902Z,7.78
2022-12-18T15:35:23.353Z,7.47
2022-12-18T15:37:51.997Z,8.70
2022-12-18T15:40:27.709Z,7.90
2022-12-18T15:43:14.929Z,7.53
2022-12-18T15:45:41.808Z,7.53
2022-12-18T15:48:24.059Z,7.78
2022-12-18T15:50:58.085Z,7.50
2022-12-18T15:53:28.094Z,7.28
2022-12-18T15:56:13.854Z,7.93
2022-12-18T15:58:41.278Z,7.55
2022-12-18T16:01:10.553Z,7.88
2022-12-18T16:03:38.141Z,8.02
2022-12-18T16:06:05.273Z,7.45
2022-12-18T16:08:32.464Z,7.72
2022-12-18T16:10:59.511Z,7.45
2022-12-18T16:13:26.172Z,8.43
2022-12-18T16:15:53.002Z,7.97
2022-12-18T16:18:20.429Z,7.78
2022-12-18T16:20:47.296Z,7.95
2022-12-18T16:23:14.060Z,7.93
2022-12-18T16:25:40.813Z,8.02
2022-12-18T16:28:07.475Z,7.72
2022-12-18T16:30:38.303Z,8.38
2022-12-18T16:33:05.841Z,7.97
2022-12-18T16:35:34.831Z,9.25
2022-12-18T16:38:02.105Z,7.90
2022-12-18T16:40:28.826Z,7.95
2022-12-18T16:42:55.513Z,7.63
2022-12-18T16:45:22.329Z,8.02
2022-12-18T16:47:49.272Z,8.20
2022-12-18T16:50:16.107Z,9.23
2022-12-18T16:52:42.851Z,8.43
2022-12-18T16:55:10.235Z,8.18
2022-12-18T16:57:36.872Z,8.68
2022-12-18T17:00:10.431Z,8.18
2022-12-18T17:02:37.357Z,9.00
2022-12-18T17:05:04.628Z,9.38
2022-12-18T17:07:31.423Z,7.95
2022-12-18T17:09:58.241Z,8.20
2022-12-18T17:12:26.792Z,9.57
2022-12-18T17:14:53.494Z,8.80
2022-12-18T17:17:22.648Z,8.70
2022-12-18T17:19:50.462Z,9.20
2022-12-18T17:22:17.263Z,7.53
2022-12-18T17:24:44.123Z,8.05
2022-12-18T17:27:11.012Z,8.57
2022-12-18T17:29:41.131Z,8.73
2022-12-18T17:32:12.047Z,7.95
2022-12-18T17:34:38.833Z,7.43
2022-12-18T17:37:05.522Z,7.30
2022-12-18T17:39:33.472Z,7.80
2022-12-18T17:42:01.433Z,7.35
2022-12-18T17:44:28.356Z,7.45
2022-12-18T17:46:55.308Z,7.70
2022-12-18T17:49:22.308Z,7.57
2022-12-18T17:51:49.052Z,7.97
2022-12-18T17:54:16.016Z,7.80
2022-12-18T17:56:42.997Z,7.60
2022-12-18T17:59:09.770Z,8.30
2022-12-18T18:01:42.595Z,8.07
2022-12-18T18:04:11.834Z,8.13
2022-12-18T18:06:39.467Z,8.57
2022-12-18T18:09:11.166Z,7.93
2022-12-18T18:12:01.501Z,8.07
2022-12-18T18:14:28.361Z,7.47
2022-12-18T18:16:55.049Z,6.90
2022-12-18T18:19:25.368Z,8.02
2022-12-18T18:21:54.028Z,7.13
2022-12-18T18:24:23.723Z,7.43
2022-12-18T18:26:50.654Z,6.80
2022-12-18T18:29:22.757Z,7.07
2022-12-18T18:31:49.983Z,7.10
2022-12-18T18:34:20.255Z,6.93
2022-12-18T18:36:47.167Z,6.57
2022-12-18T18:39:14.904Z,6.93
2022-12-18T18:41:42.194Z,7.53
2022-12-18T18:44:14.503Z,6.78
2022-12-18T18:46:41.246Z,6.50
2022-12-18T18:49:08.138Z,7.05
2022-12-18T18:51:35.593Z,6.85
2022-12-18T18:54:02.783Z,7.57
2022-12-18T18:59:17.541Z,8.40
2022-12-18T19:01:44.678Z,9.88
2022-12-18T19:04:11.431Z,10.38
2022-12-18T19:06:38.189Z,11.50
2022-12-18T19:09:07.162Z,9.93
2022-12-18T19:11:52.408Z,8.68
2022-12-18T19:14:19.404Z,8.60
2022-12-18T19:16:46.230Z,8.35
2022-12-18T19:19:13.455Z,7.30
2022-12-18T19:21:40.602Z,7.47
2022-12-18T19:24:07.717Z,7.32
2022-12-18T19:26:36.142Z,8.30
2022-12-18T19:29:08.347Z,8.82
2022-12-18T19:31:36.960Z,7.72
2022-12-18T19:34:06.795Z,8.15
2022-12-18T19:36:35.499Z,8.75
2022-12-18T19:39:11.785Z,9.07
2022-12-18T19:41:39.838Z,9.13
2022-12-18T19:44:08.274Z,8.75
2022-12-18T19:46:35.765Z,9.70
2022-12-18T19:49:02.768Z,8.95
2022-12-18T19:51:31.568Z,9.25
2022-12-18T19:54:01.678Z,16.23
2022-12-18T19:56:34.164Z,9.18
2022-12-18T19:59:02.372Z,9.65
2022-12-18T20:01:30.189Z,9.35
2022-12-18T20:03:58.881Z,9.00
2022-12-18T20:06:26.422Z,9.20
2022-12-18T20:08:57.637Z,9.23
2022-12-18T20:11:29.157Z,9.32
2022-12-18T20:13:56.453Z,9.63
2022-12-18T20:16:23.262Z,10.80
2022-12-18T20:18:50.736Z,13.02
2022-12-18T20:21:19.408Z,13.57
2022-12-18T20:23:46.077Z,15.07
2022-12-18T20:26:13.230Z,13.45
2022-12-18T20:28:40.650Z,15.20
2022-12-18T20:31:10.538Z,13.90
2022-12-18T20:33:41.350Z,12.32
2022-12-18T20:36:13.621Z,11.38
2022-12-18T20:38:41.682Z,11.02
2022-12-18T20:41:16.479Z,11.02
2022-12-18T20:43:43.924Z,10.70
2022-12-18T20:46:13.669Z,11.63
2022-12-18T20:48:41.037Z,10.38
2022-12-18T20:51:11.113Z,11.75
2022-12-18T20:53:38.822Z,10.98
2022-12-18T20:58:36.618Z,11.20
2022-12-18T21:01:15.461Z,11.02
2022-12-18T21:03:44.322Z,11.43
2022-12-18T21:06:11.852Z,11.82
2022-12-18T21:08:38.958Z,11.98
2022-12-18T21:11:45.065Z,12.38
2022-12-18T21:14:16.862Z,12.00
2022-12-18T21:16:44.283Z,11.88
2022-12-18T21:19:13.105Z,11.88
2022-12-18T21:21:40.688Z,11.98
2022-12-18T21:24:08.207Z,12.48
2022-12-18T21:26:35.069Z,12.07
2022-12-18T21:29:05.723Z,13.77
2022-12-18T21:34:02.350Z,13.20
2022-12-18T21:36:30.879Z,13.68
2022-12-18T21:38:58.415Z,13.27
2022-12-18T21:41:44.679Z,13.00
2022-12-18T21:44:15.397Z,12.20
2022-12-18T21:46:47.058Z,12.98
2022-12-18T21:49:18.325Z,13.85
2022-12-18T21:51:45.247Z,14.25
2022-12-18T21:54:12.284Z,12.40
2022-12-18T21:56:52.595Z,13.88
2022-12-18T21:59:40.423Z,14.13
2022-12-18T22:02:16.879Z,13.85
2022-12-18T22:04:45.286Z,13.43
2022-12-18T22:07:13.248Z,13.32
2022-12-18T22:09:40.396Z,13.73
2022-12-18T22:12:12.275Z,13.20
2022-12-18T22:14:39.082Z,13.73
2022-12-18T22:17:05.809Z,14.25
2022-12-18T22:19:38.141Z,14.13
2022-12-18T22:22:10.760Z,13.77
2022-12-18T22:24:37.672Z,14.23
2022-12-18T22:27:04.318Z,15.77
2022-12-18T22:29:50.092Z,15.73
2022-12-18T22:32:20.402Z,15.25
2022-12-18T22:35:05.220Z,15.20
2022-12-18T22:37:33.126Z,14.52
2022-12-18T22:39:59.828Z,15.55
2022-12-18T22:42:31.631Z,16.25
2022-12-18T22:44:58.599Z,17.55
2022-12-18T22:47:29.765Z,18.42
2022-12-18T22:49:58.201Z,18.67
2022-12-18T22:52:25.544Z,17.75
2022-12-18T22:54:53.234Z,17.85
2022-12-18T22:57:22.203Z,16.13
2022-12-18T22:59:52.384Z,17.27
2022-12-18T23:02:19.596Z,17.58
2022-12-18T23:04:47.921Z,18.00
2022-12-18T23:07:15.219Z,18.40
2022-12-18T23:09:42.513Z,18.00
2022-12-18T23:12:15.109Z,19.08
2022-12-18T23:14:42.288Z,17.45
2022-12-18T23:17:09.041Z,19.27
2022-12-18T23:19:36.418Z,16.58
2022-12-18T23:22:06.120Z,16.83
2022-12-18T23:24:36.797Z,16.33
2022-12-18T23:27:03.669Z,17.35
2022-12-18T23:29:36.230Z,18.30
2022-12-18T23:32:03.112Z,17.58
2022-12-18T23:34:29.740Z,17.60
2022-12-18T23:36:56.451Z,16.70
2022-12-18T23:39:29.867Z,18.38
2022-12-18T23:41:58.692Z,18.00
2022-12-18T23:44:25.914Z,17.83
2022-12-18T23:46:52.868Z,16.77
2022-12-18T23:49:19.871Z,17.95
2022-12-18T23:51:46.651Z,17.10
2022-12-18T23:54:13.385Z,17.08
2022-12-18T23:56:40.215Z,17.65
2022-12-18T23:59:07.176Z,18.30
